Shin Chun — VRFD2 — position and weather

sailwx.info

Track history (hours):
 
Tides and Currents Weather Stations Pressure Air Temp Water Temp Dewpoint Dewpoint Depression Visibility Wind Speed Wind Dir Waves Ship Positions

Shin Chun

Last reported at 2016-Feb-10 04:18 UTC. Time now 2016-Feb-10 04:42 UTC.
Position N 22°38' E 120°15'.

Length 152 m; draft 6.1 m.

Type: Cargo ship. MMSI: 477218300.

Date/timePositionNaut miles runAvg speedWind from/ knotsBaromVisibWave heightAir tempDewpointWater temp
2016-Feb-10 04:18N 22°38' E 120°15'4 5.0
2016-Feb-10 03:33N 22°35' E 120°18'1 1.0
2016-Feb-10 02:33N 22°35' E 120°18'0 0.0
2016-Feb-10 01:33N 22°35' E 120°18'0 0.0
2016-Feb-10 00:33N 22°35' E 120°18'6 5.8
2016-Feb-09 23:33N 22°37' E 120°13'0 0.1
2016-Feb-09 22:28N 22°37' E 120°13'0 0.0
2016-Feb-09 21:28N 22°37' E 120°13'0 0.1
2016-Feb-09 20:30N 22°37' E 120°13'0 0.1
2016-Feb-09 19:33N 22°37' E 120°13'0 0.0
2016-Feb-09 18:33N 22°37' E 120°13'1010.2
2016-Feb-09 17:33N 22°46' E 120°07'1614.9
2016-Feb-09 16:31N 22°60' E 119°60'18612.5
2016-Feb-09 01:33N 26°04' E 119°31'5 4.6
2016-Feb-09 00:33N 26°00' E 119°29'0 0.0
2016-Feb-08 23:33N 26°00' E 119°29'0 0.0
2016-Feb-08 22:33N 26°00' E 119°29'0 0.0
2016-Feb-08 21:33N 26°00' E 119°29'0 0.0
2016-Feb-08 20:33N 26°00' E 119°29'0 0.0
2016-Feb-08 19:27N 26°00' E 119°29'0 0.0
2016-Feb-08 18:27N 26°00' E 119°29'0 0.0
2016-Feb-08 17:33N 26°00' E 119°29'0 0.0
2016-Feb-08 16:33N 26°00' E 119°29'0 0.0
2016-Feb-08 15:27N 26°00' E 119°29'0 0.0
2016-Feb-08 14:33N 26°00' E 119°29'0 0.0
2016-Feb-08 13:33N 26°00' E 119°29'0 0.0
2016-Feb-08 12:33N 26°00' E 119°29'0 0.0
2016-Feb-08 11:14N 26°00' E 119°29'0 0.0
2016-Feb-08 10:32N 26°00' E 119°29'0 0.0
2016-Feb-08 09:14N 26°00' E 119°29'0 0.0
2016-Feb-08 08:32N 26°00' E 119°29'0 0.0
2016-Feb-08 07:32N 26°00' E 119°29'0 0.0
2016-Feb-08 06:32N 26°00' E 119°29'0 0.0
2016-Feb-08 05:32N 26°00' E 119°29'0 0.0
2016-Feb-08 04:26N 26°00' E 119°29'0 0.0
2016-Feb-08 03:32N 26°00' E 119°29'7 7.1
2016-Feb-08 02:33N 26°06' E 119°33'1110.8
2016-Feb-08 01:32N 26°05' E 119°45'9 2.1
2016-Feb-07 21:30N 25°59' E 119°51'0 0.0
2016-Feb-07 14:30N 25°59' E 119°51'21 7.1
2016-Feb-07 11:29N 25°38' E 119°58'16612.6
2016-Feb-06 22:20N 22°52' E 120°04'1214.7
2016-Feb-06 21:33N 22°42' E 120°10'1110.6
2016-Feb-06 20:33N 22°35' E 120°18'0 0.1
2016-Feb-06 19:29N 22°35' E 120°18'0 0.0
2016-Feb-06 18:23N 22°35' E 120°18'0 0.0
2016-Feb-06 17:17N 22°35' E 120°18'0 0.0
2016-Feb-06 16:29N 22°35' E 120°18'0 0.0
2016-Feb-06 15:29N 22°35' E 120°18'0 0.0
2016-Feb-06 14:17N 22°35' E 120°18'0 0.0
2016-Feb-06 13:29N 22°35' E 120°18'0 0.0
2016-Feb-06 12:23N 22°35' E 120°18'0 0.0
2016-Feb-06 11:29N 22°35' E 120°18'0 0.0
2016-Feb-06 10:29N 22°35' E 120°18'5 4.8
2016-Feb-06 09:33N 22°37' E 120°14'7 7.3
2016-Feb-06 08:33N 22°39' E 120°07'1312.8
2016-Feb-06 07:33N 22°45' E 119°54'1312.5
2016-Feb-06 06:33N 22°53' E 119°44'10512.6
2016-Feb-05 22:10N 24°08' E 118°23'812.9
2016-Feb-05 21:33N 24°14' E 118°18'1313.4
2016-Feb-05 20:33N 24°23' E 118°07'8 8.1
2016-Feb-05 19:33N 24°31' E 118°05'0 0.0
2016-Feb-05 18:28N 24°31' E 118°05'0 0.0
2016-Feb-05 17:28N 24°31' E 118°05'0 0.0
2016-Feb-05 16:28N 24°31' E 118°05'0 0.0
2016-Feb-05 15:28N 24°31' E 118°05'0 0.0
2016-Feb-05 14:34N 24°31' E 118°05'0 0.0
2016-Feb-05 13:33N 24°31' E 118°05'0 0.0
2016-Feb-05 12:33N 24°31' E 118°05'0 0.0
2016-Feb-05 11:33N 24°31' E 118°05'0 0.0
2016-Feb-05 10:27N 24°31' E 118°05'0 0.0
2016-Feb-05 09:33N 24°31' E 118°05'0 0.0
2016-Feb-05 08:22N 24°31' E 118°05'6 7.4
2016-Feb-05 07:34N 24°25' E 118°04'8 7.7
2016-Feb-05 06:34N 24°21' E 118°11'3 3.0
2016-Feb-05 05:34N 24°20' E 118°14'6 6.4
2016-Feb-05 04:33N 24°21' E 118°21'1615.7
2016-Feb-05 03:33N 24°24' E 118°38'2516.3
2016-Feb-05 02:03N 24°33' E 119°03'815.8
2016-Feb-05 01:33N 24°36' E 119°11'114 3.4
2016-Feb-03 16:25N 22°52' E 120°03'1213.8
2016-Feb-03 15:33N 22°42' E 120°09'1111.1
2016-Feb-03 14:33N 22°34' E 120°18'0 0.3
2016-Feb-03 13:33N 22°35' E 120°18'0 0.0
2016-Feb-03 12:33N 22°35' E 120°18'0 0.0
2016-Feb-03 11:15N 22°35' E 120°18'0 0.0
2016-Feb-03 10:33N 22°35' E 120°18'0 0.0
2016-Feb-03 09:32N 22°35' E 120°18'0 0.0
2016-Feb-03 08:32N 22°35' E 120°18'0 0.0
2016-Feb-03 07:33N 22°35' E 120°18'0 0.0
2016-Feb-03 06:32N 22°35' E 120°18'0 0.0
2016-Feb-03 05:32N 22°35' E 120°18'4 4.2
2016-Feb-03 04:33N 22°37' E 120°15'1 1.4
2016-Feb-03 03:32N 22°36' E 120°13'0 0.0
2016-Feb-03 02:26N 22°36' E 120°13'0 0.0
2016-Feb-03 01:32N 22°36' E 120°13'0 0.1
2016-Feb-03 00:32N 22°36' E 120°13'5 5.7
2016-Feb-02 23:33N 22°41' E 120°10'1514.6
2016-Feb-02 22:33N 22°54' E 120°03'19112.7
2016-Feb-02 07:31N 26°03' E 119°30'3 2.6
2016-Feb-02 06:31N 26°00' E 119°29'0 0.0
2016-Feb-02 05:31N 26°00' E 119°29'0 0.0
2016-Feb-02 03:31N 26°00' E 119°29'0 0.0
2016-Feb-02 02:31N 26°00' E 119°29'0 0.0
2016-Feb-02 01:25N 26°00' E 119°29'0 0.0
2016-Feb-02 00:22N 26°00' E 119°29'0 0.0
2016-Feb-01 23:28N 26°00' E 119°29'0 0.0
2016-Feb-01 22:16N 26°00' E 119°29'0 0.0
2016-Feb-01 21:16N 26°00' E 119°29'0 0.0
2016-Feb-01 20:22N 26°00' E 119°29'0 0.0
2016-Feb-01 19:28N 26°00' E 119°29'0 0.0
2016-Feb-01 18:28N 26°00' E 119°29'0 0.0
2016-Feb-01 17:16N 26°00' E 119°29'0 0.0
2016-Feb-01 16:28N 26°00' E 119°29'0 0.0
2016-Feb-01 15:22N 26°00' E 119°29'0 0.0
2016-Feb-01 14:28N 26°00' E 119°29'0 0.0
2016-Feb-01 13:22N 26°00' E 119°29'0 0.0
2016-Feb-01 12:16N 26°00' E 119°29'0 0.0
2016-Feb-01 11:28N 26°00' E 119°29'0 0.0
2016-Feb-01 10:28N 26°00' E 119°29'0 0.0
2016-Feb-01 09:28N 26°00' E 119°29'2 2.5
2016-Feb-01 08:33N 26°02' E 119°30'17 1.9
2016-Jan-31 23:29N 26°02' E 119°50'1211.3
2016-Jan-31 22:24N 25°51' E 119°56'18 8.4
2016-Jan-31 20:15N 25°33' E 119°58'6 6.0
2016-Jan-31 19:15N 25°27' E 119°55'  
Track history (hours):
 
Tides and Currents Weather Stations Pressure Air Temp Water Temp Dewpoint Dewpoint Depression Visibility Wind Speed Wind Dir Waves Ship Positions

Shin Chun

Last reported at 2016-Feb-10 04:18 UTC. Time now 2016-Feb-10 04:42 UTC.
Position N 22°38' E 120°15'.

Length 152 m; draft 6.1 m.

Type: Cargo ship. MMSI: 477218300.

Date/timePositionNaut miles runAvg speedWind from/ knotsBaromVisibWave heightAir tempDewpointWater temp
2016-Feb-10 04:18N 22°38' E 120°15'4 5.0
2016-Feb-10 03:33N 22°35' E 120°18'1 1.0
2016-Feb-10 02:33N 22°35' E 120°18'0 0.0
2016-Feb-10 01:33N 22°35' E 120°18'0 0.0
2016-Feb-10 00:33N 22°35' E 120°18'6 5.8
2016-Feb-09 23:33N 22°37' E 120°13'0 0.1
2016-Feb-09 22:28N 22°37' E 120°13'0 0.0
2016-Feb-09 21:28N 22°37' E 120°13'0 0.1
2016-Feb-09 20:30N 22°37' E 120°13'0 0.1
2016-Feb-09 19:33N 22°37' E 120°13'0 0.0
2016-Feb-09 18:33N 22°37' E 120°13'1010.2
2016-Feb-09 17:33N 22°46' E 120°07'1614.9
2016-Feb-09 16:31N 22°60' E 119°60'18612.5
2016-Feb-09 01:33N 26°04' E 119°31'5 4.6
2016-Feb-09 00:33N 26°00' E 119°29'0 0.0
2016-Feb-08 23:33N 26°00' E 119°29'0 0.0
2016-Feb-08 22:33N 26°00' E 119°29'0 0.0
2016-Feb-08 21:33N 26°00' E 119°29'0 0.0
2016-Feb-08 20:33N 26°00' E 119°29'0 0.0
2016-Feb-08 19:27N 26°00' E 119°29'0 0.0
2016-Feb-08 18:27N 26°00' E 119°29'0 0.0
2016-Feb-08 17:33N 26°00' E 119°29'0 0.0
2016-Feb-08 16:33N 26°00' E 119°29'0 0.0
2016-Feb-08 15:27N 26°00' E 119°29'0 0.0
2016-Feb-08 14:33N 26°00' E 119°29'0 0.0
2016-Feb-08 13:33N 26°00' E 119°29'0 0.0
2016-Feb-08 12:33N 26°00' E 119°29'0 0.0
2016-Feb-08 11:14N 26°00' E 119°29'0 0.0
2016-Feb-08 10:32N 26°00' E 119°29'0 0.0
2016-Feb-08 09:14N 26°00' E 119°29'0 0.0
2016-Feb-08 08:32N 26°00' E 119°29'0 0.0
2016-Feb-08 07:32N 26°00' E 119°29'0 0.0
2016-Feb-08 06:32N 26°00' E 119°29'0 0.0
2016-Feb-08 05:32N 26°00' E 119°29'0 0.0
2016-Feb-08 04:26N 26°00' E 119°29'0 0.0
2016-Feb-08 03:32N 26°00' E 119°29'7 7.1
2016-Feb-08 02:33N 26°06' E 119°33'1110.8
2016-Feb-08 01:32N 26°05' E 119°45'9 2.1
2016-Feb-07 21:30N 25°59' E 119°51'0 0.0
2016-Feb-07 14:30N 25°59' E 119°51'21 7.1
2016-Feb-07 11:29N 25°38' E 119°58'16612.6
2016-Feb-06 22:20N 22°52' E 120°04'1214.7
2016-Feb-06 21:33N 22°42' E 120°10'1110.6
2016-Feb-06 20:33N 22°35' E 120°18'0 0.1
2016-Feb-06 19:29N 22°35' E 120°18'0 0.0
2016-Feb-06 18:23N 22°35' E 120°18'0 0.0
2016-Feb-06 17:17N 22°35' E 120°18'0 0.0
2016-Feb-06 16:29N 22°35' E 120°18'0 0.0
2016-Feb-06 15:29N 22°35' E 120°18'0 0.0
2016-Feb-06 14:17N 22°35' E 120°18'0 0.0
2016-Feb-06 13:29N 22°35' E 120°18'0 0.0
2016-Feb-06 12:23N 22°35' E 120°18'0 0.0
2016-Feb-06 11:29N 22°35' E 120°18'0 0.0
2016-Feb-06 10:29N 22°35' E 120°18'5 4.8
2016-Feb-06 09:33N 22°37' E 120°14'7 7.3
2016-Feb-06 08:33N 22°39' E 120°07'1312.8
2016-Feb-06 07:33N 22°45' E 119°54'1312.5
2016-Feb-06 06:33N 22°53' E 119°44'10512.6
2016-Feb-05 22:10N 24°08' E 118°23'812.9
2016-Feb-05 21:33N 24°14' E 118°18'1313.4
2016-Feb-05 20:33N 24°23' E 118°07'8 8.1
2016-Feb-05 19:33N 24°31' E 118°05'0 0.0
2016-Feb-05 18:28N 24°31' E 118°05'0 0.0
2016-Feb-05 17:28N 24°31' E 118°05'0 0.0
2016-Feb-05 16:28N 24°31' E 118°05'0 0.0
2016-Feb-05 15:28N 24°31' E 118°05'0 0.0
2016-Feb-05 14:34N 24°31' E 118°05'0 0.0
2016-Feb-05 13:33N 24°31' E 118°05'0 0.0
2016-Feb-05 12:33N 24°31' E 118°05'0 0.0
2016-Feb-05 11:33N 24°31' E 118°05'0 0.0
2016-Feb-05 10:27N 24°31' E 118°05'0 0.0
2016-Feb-05 09:33N 24°31' E 118°05'0 0.0
2016-Feb-05 08:22N 24°31' E 118°05'6 7.4
2016-Feb-05 07:34N 24°25' E 118°04'8 7.7
2016-Feb-05 06:34N 24°21' E 118°11'3 3.0
2016-Feb-05 05:34N 24°20' E 118°14'6 6.4
2016-Feb-05 04:33N 24°21' E 118°21'1615.7
2016-Feb-05 03:33N 24°24' E 118°38'2516.3
2016-Feb-05 02:03N 24°33' E 119°03'815.8
2016-Feb-05 01:33N 24°36' E 119°11'114 3.4
2016-Feb-03 16:25N 22°52' E 120°03'1213.8
2016-Feb-03 15:33N 22°42' E 120°09'1111.1
2016-Feb-03 14:33N 22°34' E 120°18'0 0.3
2016-Feb-03 13:33N 22°35' E 120°18'0 0.0
2016-Feb-03 12:33N 22°35' E 120°18'0 0.0
2016-Feb-03 11:15N 22°35' E 120°18'0 0.0
2016-Feb-03 10:33N 22°35' E 120°18'0 0.0
2016-Feb-03 09:32N 22°35' E 120°18'0 0.0
2016-Feb-03 08:32N 22°35' E 120°18'0 0.0
2016-Feb-03 07:33N 22°35' E 120°18'0 0.0
2016-Feb-03 06:32N 22°35' E 120°18'0 0.0
2016-Feb-03 05:32N 22°35' E 120°18'4 4.2
2016-Feb-03 04:33N 22°37' E 120°15'1 1.4
2016-Feb-03 03:32N 22°36' E 120°13'0 0.0
2016-Feb-03 02:26N 22°36' E 120°13'0 0.0
2016-Feb-03 01:32N 22°36' E 120°13'0 0.1
2016-Feb-03 00:32N 22°36' E 120°13'5 5.7
2016-Feb-02 23:33N 22°41' E 120°10'1514.6
2016-Feb-02 22:33N 22°54' E 120°03'19112.7
2016-Feb-02 07:31N 26°03' E 119°30'3 2.6
2016-Feb-02 06:31N 26°00' E 119°29'0 0.0
2016-Feb-02 05:31N 26°00' E 119°29'0 0.0
2016-Feb-02 03:31N 26°00' E 119°29'0 0.0
2016-Feb-02 02:31N 26°00' E 119°29'0 0.0
2016-Feb-02 01:25N 26°00' E 119°29'0 0.0
2016-Feb-02 00:22N 26°00' E 119°29'0 0.0
2016-Feb-01 23:28N 26°00' E 119°29'0 0.0
2016-Feb-01 22:16N 26°00' E 119°29'0 0.0
2016-Feb-01 21:16N 26°00' E 119°29'0 0.0
2016-Feb-01 20:22N 26°00' E 119°29'0 0.0
2016-Feb-01 19:28N 26°00' E 119°29'0 0.0
2016-Feb-01 18:28N 26°00' E 119°29'0 0.0
2016-Feb-01 17:16N 26°00' E 119°29'0 0.0
2016-Feb-01 16:28N 26°00' E 119°29'0 0.0
2016-Feb-01 15:22N 26°00' E 119°29'0 0.0
2016-Feb-01 14:28N 26°00' E 119°29'0 0.0
2016-Feb-01 13:22N 26°00' E 119°29'0 0.0
2016-Feb-01 12:16N 26°00' E 119°29'0 0.0
2016-Feb-01 11:28N 26°00' E 119°29'0 0.0
2016-Feb-01 10:28N 26°00' E 119°29'0 0.0
2016-Feb-01 09:28N 26°00' E 119°29'2 2.5
2016-Feb-01 08:33N 26°02' E 119°30'17 1.9
2016-Jan-31 23:29N 26°02' E 119°50'1211.3
2016-Jan-31 22:24N 25°51' E 119°56'18 8.4
2016-Jan-31 20:15N 25°33' E 119°58'6 6.0
2016-Jan-31 19:15N 25°27' E 119°55'  

Dump ship's entire track history